sensor_id;sensor_type;location;lat;lon;timestamp;pressure;altitude;pressure_sealevel;temperature;humidity
76728;BME280;65652;53.132;18.026;2023-05-10T00:01:40;101545.31;;;9.88;45.19
76728;BME280;65652;53.132;18.026;2023-05-10T00:04:06;101544.58;;;9.86;45.47
76728;BME280;65652;53.132;18.026;2023-05-10T00:06:34;101544.39;;;9.84;45.53
76728;BME280;65652;53.132;18.026;2023-05-10T00:09:01;101545.49;;;9.81;45.42
76728;BME280;65652;53.132;18.026;2023-05-10T00:11:27;101545.27;;;9.79;45.62
76728;BME280;65652;53.132;18.026;2023-05-10T00:13:54;101543.80;;;9.77;45.57
76728;BME280;65652;53.132;18.026;2023-05-10T00:16:21;101542.98;;;9.77;45.74
76728;BME280;65652;53.132;18.026;2023-05-10T00:18:48;101541.75;;;9.74;45.97
76728;BME280;65652;53.132;18.026;2023-05-10T00:21:15;101542.61;;;9.72;45.80
76728;BME280;65652;53.132;18.026;2023-05-10T00:23:42;101538.89;;;9.69;46.02
76728;BME280;65652;53.132;18.026;2023-05-10T00:26:09;101536.76;;;9.67;46.24
76728;BME280;65652;53.132;18.026;2023-05-10T00:28:37;101531.47;;;9.65;46.01
76728;BME280;65652;53.132;18.026;2023-05-10T00:31:04;101528.77;;;9.63;45.89
76728;BME280;65652;53.132;18.026;2023-05-10T00:33:31;101527.64;;;9.61;46.23
76728;BME280;65652;53.132;18.026;2023-05-10T00:35:58;101527.98;;;9.59;46.37
76728;BME280;65652;53.132;18.026;2023-05-10T00:38:25;101522.74;;;9.56;46.23
76728;BME280;65652;53.132;18.026;2023-05-10T00:40:52;101523.09;;;9.54;46.64
76728;BME280;65652;53.132;18.026;2023-05-10T00:43:24;101524.13;;;9.51;46.46
76728;BME280;65652;53.132;18.026;2023-05-10T00:45:52;101520.77;;;9.49;46.89
76728;BME280;65652;53.132;18.026;2023-05-10T00:48:19;101520.25;;;9.46;47.09
76728;BME280;65652;53.132;18.026;2023-05-10T00:50:46;101519.30;;;9.42;47.43
76728;BME280;65652;53.132;18.026;2023-05-10T00:53:14;101516.50;;;9.37;47.69
76728;BME280;65652;53.132;18.026;2023-05-10T00:55:41;101515.48;;;9.31;47.61
76728;BME280;65652;53.132;18.026;2023-05-10T00:58:08;101512.50;;;9.26;47.73
76728;BME280;65652;53.132;18.026;2023-05-10T01:00:36;101511.58;;;9.22;47.81
76728;BME280;65652;53.132;18.026;2023-05-10T01:03:05;101506.13;;;9.16;47.90
76728;BME280;65652;53.132;18.026;2023-05-10T01:05:32;101505.63;;;9.11;48.10
76728;BME280;65652;53.132;18.026;2023-05-10T01:07:58;101516.40;;;9.05;48.06
76728;BME280;65652;53.132;18.026;2023-05-10T01:10:25;101516.71;;;9.01;48.20
76728;BME280;65652;53.132;18.026;2023-05-10T01:12:52;101518.73;;;8.97;48.15
76728;BME280;65652;53.132;18.026;2023-05-10T01:15:20;101514.66;;;8.92;48.25
76728;BME280;65652;53.132;18.026;2023-05-10T01:17:48;101511.59;;;8.88;48.39
76728;BME280;65652;53.132;18.026;2023-05-10T01:20:15;101511.34;;;8.84;48.59
76728;BME280;65652;53.132;18.026;2023-05-10T01:34:38;101501.83;;;8.66;49.35
76728;BME280;65652;53.132;18.026;2023-05-10T01:37:11;101495.73;;;8.62;49.52
76728;BME280;65652;53.132;18.026;2023-05-10T01:39:50;101496.46;;;8.59;49.52
76728;BME280;65652;53.132;18.026;2023-05-10T01:42:23;101492.02;;;8.57;49.66
76728;BME280;65652;53.132;18.026;2023-05-10T01:45:02;101490.57;;;8.55;49.82
76728;BME280;65652;53.132;18.026;2023-05-10T01:47:43;101492.31;;;8.53;49.84
76728;BME280;65652;53.132;18.026;2023-05-10T01:50:19;101490.40;;;8.50;50.00
76728;BME280;65652;53.132;18.026;2023-05-10T01:52:54;101488.95;;;8.48;49.98
76728;BME280;65652;53.132;18.026;2023-05-10T01:55:24;101486.50;;;8.45;50.31
76728;BME280;65652;53.132;18.026;2023-05-10T01:57:58;101488.89;;;8.41;50.40
76728;BME280;65652;53.132;18.026;2023-05-10T02:00:27;101486.61;;;8.38;50.38
76728;BME280;65652;53.132;18.026;2023-05-10T02:02:55;101485.21;;;8.35;50.48
76728;BME280;65652;53.132;18.026;2023-05-10T02:05:23;101481.23;;;8.31;50.41
76728;BME280;65652;53.132;18.026;2023-05-10T02:07:50;101480.18;;;8.28;50.87
76728;BME280;65652;53.132;18.026;2023-05-10T02:10:19;101478.10;;;8.23;50.91
76728;BME280;65652;53.132;18.026;2023-05-10T02:12:48;101474.95;;;8.20;51.13
76728;BME280;65652;53.132;18.026;2023-05-10T02:15:19;101472.11;;;8.17;51.17
76728;BME280;65652;53.132;18.026;2023-05-10T02:17:48;101469.77;;;8.15;51.09
76728;BME280;65652;53.132;18.026;2023-05-10T02:20:16;101469.23;;;8.12;51.41
76728;BME280;65652;53.132;18.026;2023-05-10T02:22:45;101464.49;;;8.10;51.54
76728;BME280;65652;53.132;18.026;2023-05-10T02:25:14;101464.13;;;8.07;51.78
76728;BME280;65652;53.132;18.026;2023-05-10T02:27:43;101463.87;;;8.06;51.63
76728;BME280;65652;53.132;18.026;2023-05-10T02:30:11;101461.35;;;8.04;51.53
76728;BME280;65652;53.132;18.026;2023-05-10T02:32:39;101461.66;;;8.02;51.88
76728;BME280;65652;53.132;18.026;2023-05-10T02:35:07;101465.07;;;8.01;51.89
76728;BME280;65652;53.132;18.026;2023-05-10T02:37:36;101461.70;;;7.99;52.09
76728;BME280;65652;53.132;18.026;2023-05-10T02:40:05;101462.33;;;7.97;52.16
76728;BME280;65652;53.132;18.026;2023-05-10T02:42:35;101463.63;;;7.96;52.32
76728;BME280;65652;53.132;18.026;2023-05-10T02:45:08;101461.38;;;7.95;51.79
76728;BME280;65652;53.132;18.026;2023-05-10T02:47:37;101462.46;;;7.95;52.05
76728;BME280;65652;53.132;18.026;2023-05-10T02:50:05;101466.02;;;7.94;51.94
76728;BME280;65652;53.132;18.026;2023-05-10T02:52:37;101463.41;;;7.94;52.37
76728;BME280;65652;53.132;18.026;2023-05-10T02:55:09;101462.02;;;7.91;52.10
76728;BME280;65652;53.132;18.026;2023-05-10T02:57:40;101463.25;;;7.91;52.27
76728;BME280;65652;53.132;18.026;2023-05-10T03:00:08;101466.14;;;7.90;52.40
76728;BME280;65652;53.132;18.026;2023-05-10T03:02:35;101464.08;;;7.89;52.72
76728;BME280;65652;53.132;18.026;2023-05-10T03:05:02;101466.09;;;7.88;52.40
76728;BME280;65652;53.132;18.026;2023-05-10T03:07:30;101469.04;;;7.86;52.38
76728;BME280;65652;53.132;18.026;2023-05-10T03:09:57;101469.06;;;7.86;52.48
76728;BME280;65652;53.132;18.026;2023-05-10T03:12:37;101465.73;;;7.86;52.77
76728;BME280;65652;53.132;18.026;2023-05-10T03:18:14;101465.54;;;7.83;52.90
76728;BME280;65652;53.132;18.026;2023-05-10T03:20:46;101469.30;;;7.82;52.98
76728;BME280;65652;53.132;18.026;2023-05-10T03:23:35;101466.45;;;7.80;53.07
76728;BME280;65652;53.132;18.026;2023-05-10T03:26:04;101465.55;;;7.77;53.17
76728;BME280;65652;53.132;18.026;2023-05-10T03:28:34;101466.17;;;7.76;53.57
76728;BME280;65652;53.132;18.026;2023-05-10T03:31:02;101465.38;;;7.74;53.30
76728;BME280;65652;53.132;18.026;2023-05-10T03:33:31;101462.93;;;7.74;53.51
76728;BME280;65652;53.132;18.026;2023-05-10T03:36:00;101464.39;;;7.73;53.31
76728;BME280;65652;53.132;18.026;2023-05-10T03:38:27;101465.22;;;7.74;53.22
76728;BME280;65652;53.132;18.026;2023-05-10T03:40:54;101464.77;;;7.75;53.30
76728;BME280;65652;53.132;18.026;2023-05-10T03:43:22;101460.30;;;7.77;53.47
76728;BME280;65652;53.132;18.026;2023-05-10T03:45:49;101463.04;;;7.78;53.26
76728;BME280;65652;53.132;18.026;2023-05-10T03:48:16;101462.06;;;7.80;53.60
76728;BME280;65652;53.132;18.026;2023-05-10T03:50:43;101467.83;;;7.80;53.46
76728;BME280;65652;53.132;18.026;2023-05-10T03:53:10;101459.55;;;7.80;53.66
76728;BME280;65652;53.132;18.026;2023-05-10T03:55:37;101458.62;;;7.81;53.25
76728;BME280;65652;53.132;18.026;2023-05-10T03:58:04;101454.63;;;7.83;53.05
76728;BME280;65652;53.132;18.026;2023-05-10T04:00:31;101454.30;;;7.85;52.87
76728;BME280;65652;53.132;18.026;2023-05-10T04:02:58;101449.86;;;7.89;52.99
76728;BME280;65652;53.132;18.026;2023-05-10T04:05:24;101454.83;;;7.91;53.07
76728;BME280;65652;53.132;18.026;2023-05-10T04:07:53;101454.34;;;7.93;52.89
76728;BME280;65652;53.132;18.026;2023-05-10T04:10:20;101459.95;;;7.96;52.95
76728;BME280;65652;53.132;18.026;2023-05-10T04:12:47;101463.04;;;8.00;52.84
76728;BME280;65652;53.132;18.026;2023-05-10T04:15:14;101460.64;;;8.04;52.59
76728;BME280;65652;53.132;18.026;2023-05-10T04:17:41;101457.70;;;8.06;52.54
76728;BME280;65652;53.132;18.026;2023-05-10T04:20:09;101455.42;;;8.09;52.41
76728;BME280;65652;53.132;18.026;2023-05-10T04:22:36;101455.85;;;8.13;52.44
76728;BME280;65652;53.132;18.026;2023-05-10T04:25:03;101454.75;;;8.16;52.46
76728;BME280;65652;53.132;18.026;2023-05-10T04:27:31;101451.52;;;8.20;52.32
76728;BME280;65652;53.132;18.026;2023-05-10T04:29:58;101453.05;;;8.24;52.25
76728;BME280;65652;53.132;18.026;2023-05-10T04:32:25;101453.41;;;8.29;52.00
76728;BME280;65652;53.132;18.026;2023-05-10T04:34:52;101452.20;;;8.34;52.03
76728;BME280;65652;53.132;18.026;2023-05-10T04:37:19;101451.79;;;8.40;51.98
76728;BME280;65652;53.132;18.026;2023-05-10T04:39:47;101450.92;;;8.48;51.81
76728;BME280;65652;53.132;18.026;2023-05-10T04:42:14;101445.37;;;8.54;51.73
76728;BME280;65652;53.132;18.026;2023-05-10T04:44:41;101448.64;;;8.63;51.52
76728;BME280;65652;53.132;18.026;2023-05-10T04:47:09;101447.10;;;8.73;51.43
76728;BME280;65652;53.132;18.026;2023-05-10T04:49:36;101443.69;;;8.82;51.20
76728;BME280;65652;53.132;18.026;2023-05-10T04:52:02;101445.88;;;8.91;50.99
76728;BME280;65652;53.132;18.026;2023-05-10T04:54:29;101445.89;;;9.01;50.79
76728;BME280;65652;53.132;18.026;2023-05-10T04:56:56;101444.70;;;9.10;50.68
76728;BME280;65652;53.132;18.026;2023-05-10T04:59:23;101442.13;;;9.19;50.60
76728;BME280;65652;53.132;18.026;2023-05-10T05:01:50;101445.36;;;9.28;50.21
76728;BME280;65652;53.132;18.026;2023-05-10T05:04:17;101439.33;;;9.36;50.06
76728;BME280;65652;53.132;18.026;2023-05-10T05:06:44;101440.52;;;9.47;50.00
76728;BME280;65652;53.132;18.026;2023-05-10T05:09:11;101438.19;;;9.57;49.91
76728;BME280;65652;53.132;18.026;2023-05-10T05:11:37;101432.67;;;9.70;49.82
76728;BME280;65652;53.132;18.026;2023-05-10T05:14:05;101436.79;;;9.81;49.46
76728;BME280;65652;53.132;18.026;2023-05-10T05:16:31;101436.80;;;9.93;49.34
76728;BME280;65652;53.132;18.026;2023-05-10T05:18:59;101435.20;;;10.06;49.38
76728;BME280;65652;53.132;18.026;2023-05-10T05:21:27;101429.86;;;10.21;50.25
76728;BME280;65652;53.132;18.026;2023-05-10T05:23:55;101432.27;;;10.44;51.70
76728;BME280;65652;53.132;18.026;2023-05-10T05:26:22;101428.78;;;10.74;52.15
76728;BME280;65652;53.132;18.026;2023-05-10T05:28:49;101425.48;;;11.01;49.52
76728;BME280;65652;53.132;18.026;2023-05-10T05:31:19;101425.84;;;11.21;48.91
76728;BME280;65652;53.132;18.026;2023-05-10T05:33:45;101425.85;;;11.43;48.18
76728;BME280;65652;53.132;18.026;2023-05-10T05:36:12;101428.70;;;11.68;48.48
76728;BME280;65652;53.132;18.026;2023-05-10T05:38:39;101424.70;;;11.92;47.62
76728;BME280;65652;53.132;18.026;2023-05-10T05:41:06;101422.90;;;12.15;47.21
76728;BME280;65652;53.132;18.026;2023-05-10T05:43:33;101422.83;;;12.32;46.26
76728;BME280;65652;53.132;18.026;2023-05-10T05:46:00;101421.50;;;12.50;46.13
76728;BME280;65652;53.132;18.026;2023-05-10T05:48:27;101415.52;;;12.71;45.48
76728;BME280;65652;53.132;18.026;2023-05-10T05:50:56;101417.60;;;12.88;44.90
76728;BME280;65652;53.132;18.026;2023-05-10T05:53:23;101415.01;;;13.06;44.43
76728;BME280;65652;53.132;18.026;2023-05-10T05:55:54;101413.05;;;13.22;44.14
76728;BME280;65652;53.132;18.026;2023-05-10T05:58:22;101411.02;;;13.43;43.35
76728;BME280;65652;53.132;18.026;2023-05-10T06:00:49;101405.30;;;13.61;43.44
76728;BME280;65652;53.132;18.026;2023-05-10T06:03:17;101406.13;;;13.81;42.12
76728;BME280;65652;53.132;18.026;2023-05-10T06:05:44;101410.14;;;13.98;41.09
76728;BME280;65652;53.132;18.026;2023-05-10T06:08:11;101408.46;;;14.09;40.17
76728;BME280;65652;53.132;18.026;2023-05-10T06:10:38;101399.96;;;14.24;40.54
76728;BME280;65652;53.132;18.026;2023-05-10T06:13:05;101405.02;;;14.44;40.44
76728;BME280;65652;53.132;18.026;2023-05-10T06:15:32;101408.83;;;14.66;40.04
76728;BME280;65652;53.132;18.026;2023-05-10T06:17:59;101407.85;;;14.86;38.74
76728;BME280;65652;53.132;18.026;2023-05-10T06:20:26;101410.05;;;15.00;37.66
76728;BME280;65652;53.132;18.026;2023-05-10T06:22:53;101410.19;;;15.14;38.28
76728;BME280;65652;53.132;18.026;2023-05-10T06:25:19;101410.52;;;15.29;37.15
76728;BME280;65652;53.132;18.026;2023-05-10T06:27:46;101413.98;;;15.41;36.73
76728;BME280;65652;53.132;18.026;2023-05-10T06:30:13;101410.07;;;15.52;36.22
76728;BME280;65652;53.132;18.026;2023-05-10T06:32:41;101409.73;;;15.61;36.78
76728;BME280;65652;53.132;18.026;2023-05-10T06:35:10;101407.66;;;15.75;36.04
76728;BME280;65652;53.132;18.026;2023-05-10T06:37:37;101408.21;;;15.90;36.27
76728;BME280;65652;53.132;18.026;2023-05-10T06:40:05;101404.96;;;16.10;35.82
76728;BME280;65652;53.132;18.026;2023-05-10T06:42:32;101407.04;;;16.29;34.95
76728;BME280;65652;53.132;18.026;2023-05-10T06:44:59;101406.77;;;16.44;35.39
76728;BME280;65652;53.132;18.026;2023-05-10T06:47:26;101401.17;;;16.66;35.43
76728;BME280;65652;53.132;18.026;2023-05-10T06:49:53;101401.58;;;16.89;34.31
76728;BME280;65652;53.132;18.026;2023-05-10T06:52:20;101396.08;;;16.99;33.22
76728;BME280;65652;53.132;18.026;2023-05-10T06:54:47;101395.48;;;17.09;33.77
76728;BME280;65652;53.132;18.026;2023-05-10T06:57:14;101400.92;;;17.28;33.53
76728;BME280;65652;53.132;18.026;2023-05-10T06:59:41;101395.27;;;17.32;32.41
76728;BME280;65652;53.132;18.026;2023-05-10T07:02:07;101401.35;;;17.38;32.33
76728;BME280;65652;53.132;18.026;2023-05-10T07:04:34;101402.27;;;17.47;32.38
76728;BME280;65652;53.132;18.026;2023-05-10T07:07:01;101397.06;;;17.60;31.89
76728;BME280;65652;53.132;18.026;2023-05-10T07:09:28;101398.70;;;17.74;31.49
76728;BME280;65652;53.132;18.026;2023-05-10T07:11:55;101395.27;;;17.81;31.26
76728;BME280;65652;53.132;18.026;2023-05-10T07:14:22;101399.80;;;17.89;31.14
76728;BME280;65652;53.132;18.026;2023-05-10T07:16:49;101397.80;;;18.02;31.13
76728;BME280;65652;53.132;18.026;2023-05-10T07:19:16;101394.36;;;18.21;31.19
76728;BME280;65652;53.132;18.026;2023-05-10T07:21:43;101393.54;;;18.38;30.57
76728;BME280;65652;53.132;18.026;2023-05-10T07:24:09;101394.20;;;18.49;30.62
76728;BME280;65652;53.132;18.026;2023-05-10T07:26:36;101386.76;;;18.62;30.74
76728;BME280;65652;53.132;18.026;2023-05-10T07:29:03;101390.30;;;18.82;30.35
76728;BME280;65652;53.132;18.026;2023-05-10T07:31:30;101383.63;;;18.98;30.21
76728;BME280;65652;53.132;18.026;2023-05-10T07:33:57;101385.84;;;19.18;30.07
76728;BME280;65652;53.132;18.026;2023-05-10T07:36:24;101382.63;;;19.36;29.59
76728;BME280;65652;53.132;18.026;2023-05-10T07:38:51;101388.73;;;19.51;29.75
76728;BME280;65652;53.132;18.026;2023-05-10T07:41:18;101393.53;;;19.70;29.06
76728;BME280;65652;53.132;18.026;2023-05-10T07:43:44;101387.36;;;19.81;28.72
76728;BME280;65652;53.132;18.026;2023-05-10T07:46:11;101387.42;;;19.90;28.54
76728;BME280;65652;53.132;18.026;2023-05-10T07:48:38;101385.61;;;19.98;28.22
76728;BME280;65652;53.132;18.026;2023-05-10T07:51:05;101384.64;;;20.17;28.89
76728;BME280;65652;53.132;18.026;2023-05-10T07:53:33;101382.34;;;20.48;28.47
76728;BME280;65652;53.132;18.026;2023-05-10T07:56:20;101388.16;;;20.73;27.83
76728;BME280;65652;53.132;18.026;2023-05-10T07:58:48;101384.65;;;20.96;28.00
76728;BME280;65652;53.132;18.026;2023-05-10T08:01:14;101381.59;;;21.17;26.88
76728;BME280;65652;53.132;18.026;2023-05-10T08:03:41;101377.34;;;21.24;26.93
76728;BME280;65652;53.132;18.026;2023-05-10T08:06:08;101376.25;;;21.28;26.14
76728;BME280;65652;53.132;18.026;2023-05-10T08:08:35;101379.46;;;21.44;26.69
76728;BME280;65652;53.132;18.026;2023-05-10T08:11:03;101376.81;;;21.76;26.25
76728;BME280;65652;53.132;18.026;2023-05-10T08:13:31;101377.09;;;21.91;25.12
76728;BME280;65652;53.132;18.026;2023-05-10T08:15:58;101381.27;;;21.93;24.82
76728;BME280;65652;53.132;18.026;2023-05-10T08:18:25;101369.04;;;21.95;24.92
76728;BME280;65652;53.132;18.026;2023-05-10T08:20:51;101373.22;;;22.01;24.43
76728;BME280;65652;53.132;18.026;2023-05-10T08:23:18;101378.34;;;21.88;24.33
76728;BME280;65652;53.132;18.026;2023-05-10T08:25:45;101374.66;;;21.76;24.75
76728;BME280;65652;53.132;18.026;2023-05-10T08:28:12;101362.27;;;21.80;25.22
76728;BME280;65652;53.132;18.026;2023-05-10T08:30:39;101364.27;;;22.13;24.83
76728;BME280;65652;53.132;18.026;2023-05-10T08:33:05;101367.51;;;22.37;24.28
76728;BME280;65652;53.132;18.026;2023-05-10T08:35:32;101370.78;;;22.39;24.25
76728;BME280;65652;53.132;18.026;2023-05-10T08:38:01;101370.89;;;22.42;24.02
76728;BME280;65652;53.132;18.026;2023-05-10T08:40:28;101365.33;;;22.51;24.03
76728;BME280;65652;53.132;18.026;2023-05-10T08:43:12;101368.71;;;22.64;24.12
76728;BME280;65652;53.132;18.026;2023-05-10T08:45:41;101361.14;;;22.82;24.06
76728;BME280;65652;53.132;18.026;2023-05-10T08:48:09;101362.91;;;23.04;23.73
76728;BME280;65652;53.132;18.026;2023-05-10T08:50:40;101362.34;;;23.29;23.96
76728;BME280;65652;53.132;18.026;2023-05-10T08:53:12;101360.32;;;23.70;23.58
76728;BME280;65652;53.132;18.026;2023-05-10T08:55:40;101367.45;;;23.94;22.63
76728;BME280;65652;53.132;18.026;2023-05-10T08:58:09;101354.29;;;23.91;22.47
76728;BME280;65652;53.132;18.026;2023-05-10T09:00:36;101357.20;;;23.93;22.83
76728;BME280;65652;53.132;18.026;2023-05-10T09:03:04;101356.08;;;24.04;22.77
76728;BME280;65652;53.132;18.026;2023-05-10T09:05:31;101360.03;;;24.38;22.74
76728;BME280;65652;53.132;18.026;2023-05-10T09:07:58;101357.76;;;24.63;22.37
76728;BME280;65652;53.132;18.026;2023-05-10T09:10:27;101357.09;;;24.84;21.92
76728;BME280;65652;53.132;18.026;2023-05-10T09:12:56;101355.64;;;24.76;21.38
76728;BME280;65652;53.132;18.026;2023-05-10T09:15:24;101350.00;;;24.70;21.90
76728;BME280;65652;53.132;18.026;2023-05-10T09:17:50;101354.42;;;24.76;21.73
76728;BME280;65652;53.132;18.026;2023-05-10T09:20:19;101349.30;;;24.84;21.72
76728;BME280;65652;53.132;18.026;2023-05-10T09:22:46;101348.24;;;24.93;21.73
76728;BME280;65652;53.132;18.026;2023-05-10T09:25:15;101345.56;;;25.02;21.57
76728;BME280;65652;53.132;18.026;2023-05-10T09:27:47;101344.35;;;25.04;21.05
76728;BME280;65652;53.132;18.026;2023-05-10T09:30:23;101348.63;;;24.80;21.28
76728;BME280;65652;53.132;18.026;2023-05-10T09:32:52;101347.14;;;25.02;21.68
76728;BME280;65652;53.132;18.026;2023-05-10T09:35:22;101348.52;;;25.25;20.83
76728;BME280;65652;53.132;18.026;2023-05-10T09:37:51;101347.40;;;25.23;20.90
76728;BME280;65652;53.132;18.026;2023-05-10T09:40:31;101347.92;;;25.21;21.06
76728;BME280;65652;53.132;18.026;2023-05-10T09:43:06;101346.96;;;25.33;20.74
76728;BME280;65652;53.132;18.026;2023-05-10T09:45:35;101334.75;;;25.12;21.01
76728;BME280;65652;53.132;18.026;2023-05-10T09:48:02;101336.81;;;25.31;21.34
76728;BME280;65652;53.132;18.026;2023-05-10T09:50:30;101338.24;;;25.56;20.69
76728;BME280;65652;53.132;18.026;2023-05-10T09:52:59;101341.17;;;25.67;20.42
76728;BME280;65652;53.132;18.026;2023-05-10T09:58:02;101336.98;;;25.61;20.66
76728;BME280;65652;53.132;18.026;2023-05-10T10:00:35;101337.42;;;25.85;20.73
76728;BME280;65652;53.132;18.026;2023-05-10T10:03:03;101330.33;;;26.03;20.14
76728;BME280;65652;53.132;18.026;2023-05-10T10:05:34;101333.77;;;26.07;20.26
76728;BME280;65652;53.132;18.026;2023-05-10T10:08:05;101328.21;;;26.00;20.15
76728;BME280;65652;53.132;18.026;2023-05-10T10:10:33;101322.40;;;25.91;20.59
76728;BME280;65652;53.132;18.026;2023-05-10T10:13:01;101325.16;;;26.02;20.52
76728;BME280;65652;53.132;18.026;2023-05-10T10:15:28;101324.59;;;25.98;20.14
76728;BME280;65652;53.132;18.026;2023-05-10T10:17:55;101321.33;;;25.99;20.43
76728;BME280;65652;53.132;18.026;2023-05-10T10:20:22;101325.73;;;26.09;19.29
76728;BME280;65652;53.132;18.026;2023-05-10T10:22:49;101313.09;;;25.70;19.74
76728;BME280;65652;53.132;18.026;2023-05-10T10:25:17;101309.74;;;25.63;19.91
76728;BME280;65652;53.132;18.026;2023-05-10T10:30:52;101305.98;;;25.93;20.01
76728;BME280;65652;53.132;18.026;2023-05-10T10:33:30;101313.17;;;26.20;19.98
76728;BME280;65652;53.132;18.026;2023-05-10T10:36:01;101304.38;;;26.40;19.90
76728;BME280;65652;53.132;18.026;2023-05-10T10:38:55;101309.51;;;26.53;19.55
76728;BME280;65652;53.132;18.026;2023-05-10T10:44:24;101292.87;;;26.51;19.62
76728;BME280;65652;53.132;18.026;2023-05-10T10:49:50;101297.71;;;26.60;19.49
76728;BME280;65652;53.132;18.026;2023-05-10T10:52:30;101289.01;;;26.66;19.80
76728;BME280;65652;53.132;18.026;2023-05-10T10:55:05;101290.77;;;26.70;19.51
76728;BME280;65652;53.132;18.026;2023-05-10T11:03:03;101292.61;;;26.54;19.61
76728;BME280;65652;53.132;18.026;2023-05-10T11:05:49;101293.02;;;26.55;19.80
76728;BME280;65652;53.132;18.026;2023-05-10T11:08:21;101284.52;;;26.68;19.85
76728;BME280;65652;53.132;18.026;2023-05-10T11:13:46;101288.44;;;26.52;19.75
76728;BME280;65652;53.132;18.026;2023-05-10T11:19:17;101283.73;;;26.43;20.26
76728;BME280;65652;53.132;18.026;2023-05-10T11:21:52;101286.17;;;26.74;19.77
76728;BME280;65652;53.132;18.026;2023-05-10T11:24:38;101286.76;;;27.08;19.46
76728;BME280;65652;53.132;18.026;2023-05-10T11:27:05;101278.46;;;27.36;19.39
76728;BME280;65652;53.132;18.026;2023-05-10T11:29:32;101285.48;;;27.48;19.30
76728;BME280;65652;53.132;18.026;2023-05-10T11:32:00;101272.52;;;27.61;19.50
76728;BME280;65652;53.132;18.026;2023-05-10T11:34:31;101279.50;;;27.80;19.13
76728;BME280;65652;53.132;18.026;2023-05-10T11:37:00;101283.91;;;27.65;19.28
76728;BME280;65652;53.132;18.026;2023-05-10T11:39:27;101279.42;;;27.62;18.99
76728;BME280;65652;53.132;18.026;2023-05-10T11:41:55;101284.81;;;27.64;18.91
76728;BME280;65652;53.132;18.026;2023-05-10T11:44:22;101274.58;;;27.62;18.73
76728;BME280;65652;53.132;18.026;2023-05-10T11:46:49;101275.09;;;27.55;18.89
76728;BME280;65652;53.132;18.026;2023-05-10T11:49:16;101271.27;;;27.42;18.73
76728;BME280;65652;53.132;18.026;2023-05-10T11:51:43;101273.20;;;27.58;18.93
76728;BME280;65652;53.132;18.026;2023-05-10T11:54:11;101272.95;;;27.84;18.66
76728;BME280;65652;53.132;18.026;2023-05-10T11:56:39;101274.67;;;28.07;18.46
76728;BME280;65652;53.132;18.026;2023-05-10T11:59:06;101281.08;;;28.01;18.44
76728;BME280;65652;53.132;18.026;2023-05-10T12:01:34;101271.86;;;27.90;18.35
76728;BME280;65652;53.132;18.026;2023-05-10T12:04:02;101281.05;;;27.90;18.27
76728;BME280;65652;53.132;18.026;2023-05-10T12:06:31;101275.63;;;27.79;18.53
76728;BME280;65652;53.132;18.026;2023-05-10T12:08:58;101263.40;;;27.84;18.36
76728;BME280;65652;53.132;18.026;2023-05-10T12:11:27;101269.66;;;27.80;18.59
76728;BME280;65652;53.132;18.026;2023-05-10T12:13:55;101272.91;;;27.76;18.36
76728;BME280;65652;53.132;18.026;2023-05-10T12:16:24;101271.25;;;27.80;18.29
76728;BME280;65652;53.132;18.026;2023-05-10T12:18:53;101264.59;;;27.73;17.92
76728;BME280;65652;53.132;18.026;2023-05-10T12:21:20;101261.23;;;27.58;18.19
76728;BME280;65652;53.132;18.026;2023-05-10T12:23:51;101258.93;;;27.33;18.13
76728;BME280;65652;53.132;18.026;2023-05-10T12:26:21;101262.88;;;27.23;18.13
76728;BME280;65652;53.132;18.026;2023-05-10T12:28:48;101263.34;;;27.37;18.56
76728;BME280;65652;53.132;18.026;2023-05-10T12:31:16;101265.11;;;27.64;18.31
76728;BME280;65652;53.132;18.026;2023-05-10T12:33:43;101263.15;;;27.55;18.29
76728;BME280;65652;53.132;18.026;2023-05-10T12:36:16;101261.27;;;27.29;18.59
76728;BME280;65652;53.132;18.026;2023-05-10T12:38:45;101263.34;;;27.33;18.50
76728;BME280;65652;53.132;18.026;2023-05-10T12:41:16;101263.38;;;27.40;18.59
76728;BME280;65652;53.132;18.026;2023-05-10T12:43:43;101266.42;;;27.66;18.41
76728;BME280;65652;53.132;18.026;2023-05-10T12:46:12;101271.04;;;27.77;18.10
76728;BME280;65652;53.132;18.026;2023-05-10T12:48:40;101268.05;;;27.79;18.42
76728;BME280;65652;53.132;18.026;2023-05-10T12:51:08;101269.80;;;27.91;17.87
76728;BME280;65652;53.132;18.026;2023-05-10T12:53:36;101264.32;;;27.90;17.81
76728;BME280;65652;53.132;18.026;2023-05-10T12:56:03;101265.66;;;27.70;17.74
76728;BME280;65652;53.132;18.026;2023-05-10T12:58:30;101264.39;;;27.69;17.99
76728;BME280;65652;53.132;18.026;2023-05-10T13:00:59;101263.73;;;27.68;17.61
76728;BME280;65652;53.132;18.026;2023-05-10T13:03:26;101261.48;;;27.69;17.62
76728;BME280;65652;53.132;18.026;2023-05-10T13:05:52;101262.00;;;27.81;17.80
76728;BME280;65652;53.132;18.026;2023-05-10T13:08:20;101258.30;;;27.86;17.79
76728;BME280;65652;53.132;18.026;2023-05-10T13:10:47;101253.27;;;27.86;18.01
76728;BME280;65652;53.132;18.026;2023-05-10T13:13:14;101248.69;;;27.92;18.06
76728;BME280;65652;53.132;18.026;2023-05-10T13:15:41;101253.80;;;28.18;17.89
76728;BME280;65652;53.132;18.026;2023-05-10T13:18:08;101252.16;;;28.18;17.96
76728;BME280;65652;53.132;18.026;2023-05-10T13:20:36;101248.45;;;28.20;17.49
76728;BME280;65652;53.132;18.026;2023-05-10T13:23:03;101247.74;;;27.99;17.81
76728;BME280;65652;53.132;18.026;2023-05-10T13:25:30;101243.70;;;27.81;18.18
76728;BME280;65652;53.132;18.026;2023-05-10T13:27:57;101236.20;;;27.90;18.37